sensor_id;sensor_type;location;lat;lon;timestamp;temperature;humidity
7708;DHT22;3896;48.758;8.888;2023-05-10T00:00:17;15.60;99.90
7708;DHT22;3896;48.758;8.888;2023-05-10T00:02:42;15.60;99.90
7708;DHT22;3896;48.758;8.888;2023-05-10T00:05:08;15.60;99.90
7708;DHT22;3896;48.758;8.888;2023-05-10T00:07:33;15.60;99.90
7708;DHT22;3896;48.758;8.888;2023-05-10T00:09:59;15.50;99.90
7708;DHT22;3896;48.758;8.888;2023-05-10T00:12:25;15.50;99.90
7708;DHT22;3896;48.758;8.888;2023-05-10T00:14:50;15.40;99.90
7708;DHT22;3896;48.758;8.888;2023-05-10T00:17:16;15.40;99.90
7708;DHT22;3896;48.758;8.888;2023-05-10T00:19:41;15.40;99.90
7708;DHT22;3896;48.758;8.888;2023-05-10T00:22:07;15.30;99.90
7708;DHT22;3896;48.758;8.888;2023-05-10T00:24:32;15.30;99.90
7708;DHT22;3896;48.758;8.888;2023-05-10T00:26:58;15.20;99.90
7708;DHT22;3896;48.758;8.888;2023-05-10T00:29:23;15.20;99.90
7708;DHT22;3896;48.758;8.888;2023-05-10T00:31:49;15.20;99.90
7708;DHT22;3896;48.758;8.888;2023-05-10T00:34:15;15.20;99.90
7708;DHT22;3896;48.758;8.888;2023-05-10T00:36:40;15.10;99.90
7708;DHT22;3896;48.758;8.888;2023-05-10T00:39:06;15.10;99.90
7708;DHT22;3896;48.758;8.888;2023-05-10T00:41:31;15.10;99.90
7708;DHT22;3896;48.758;8.888;2023-05-10T00:43:58;15.00;99.90
7708;DHT22;3896;48.758;8.888;2023-05-10T00:46:24;15.00;99.90
7708;DHT22;3896;48.758;8.888;2023-05-10T00:48:50;15.00;99.90
7708;DHT22;3896;48.758;8.888;2023-05-10T00:51:16;14.90;99.90
7708;DHT22;3896;48.758;8.888;2023-05-10T00:53:44;14.90;99.90
7708;DHT22;3896;48.758;8.888;2023-05-10T00:56:10;14.90;99.90
7708;DHT22;3896;48.758;8.888;2023-05-10T00:58:36;14.90;99.90
7708;DHT22;3896;48.758;8.888;2023-05-10T01:01:02;14.90;99.90
7708;DHT22;3896;48.758;8.888;2023-05-10T01:03:28;14.80;99.90
7708;DHT22;3896;48.758;8.888;2023-05-10T01:05:54;14.80;99.90
7708;DHT22;3896;48.758;8.888;2023-05-10T01:08:20;14.80;99.90
7708;DHT22;3896;48.758;8.888;2023-05-10T01:10:46;14.80;99.90
7708;DHT22;3896;48.758;8.888;2023-05-10T01:13:26;14.80;99.90
7708;DHT22;3896;48.758;8.888;2023-05-10T01:15:53;14.70;99.90
7708;DHT22;3896;48.758;8.888;2023-05-10T01:18:20;14.70;99.90
7708;DHT22;3896;48.758;8.888;2023-05-10T01:20:48;14.70;99.90
7708;DHT22;3896;48.758;8.888;2023-05-10T01:23:41;14.70;99.90
7708;DHT22;3896;48.758;8.888;2023-05-10T01:26:24;14.70;99.90
7708;DHT22;3896;48.758;8.888;2023-05-10T01:34:25;14.60;99.90
7708;DHT22;3896;48.758;8.888;2023-05-10T01:37:02;14.60;99.90
7708;DHT22;3896;48.758;8.888;2023-05-10T01:39:40;14.60;99.90
7708;DHT22;3896;48.758;8.888;2023-05-10T01:42:20;14.60;99.90
7708;DHT22;3896;48.758;8.888;2023-05-10T01:50:03;14.50;99.90
7708;DHT22;3896;48.758;8.888;2023-05-10T01:52:37;14.50;99.90
7708;DHT22;3896;48.758;8.888;2023-05-10T01:55:09;14.50;99.90
7708;DHT22;3896;48.758;8.888;2023-05-10T01:57:37;14.50;99.90
7708;DHT22;3896;48.758;8.888;2023-05-10T02:00:07;14.40;99.90
7708;DHT22;3896;48.758;8.888;2023-05-10T02:02:37;14.40;99.90
7708;DHT22;3896;48.758;8.888;2023-05-10T02:05:05;14.40;99.90
7708;DHT22;3896;48.758;8.888;2023-05-10T02:07:36;14.40;99.90
7708;DHT22;3896;48.758;8.888;2023-05-10T02:10:04;14.40;99.90
7708;DHT22;3896;48.758;8.888;2023-05-10T02:12:32;14.40;99.90
7708;DHT22;3896;48.758;8.888;2023-05-10T02:15:02;14.40;99.90
7708;DHT22;3896;48.758;8.888;2023-05-10T02:17:28;14.40;99.90
7708;DHT22;3896;48.758;8.888;2023-05-10T02:19:56;14.30;99.90
7708;DHT22;3896;48.758;8.888;2023-05-10T02:22:23;14.30;99.90
7708;DHT22;3896;48.758;8.888;2023-05-10T02:24:50;14.30;99.90
7708;DHT22;3896;48.758;8.888;2023-05-10T02:27:17;14.30;99.90
7708;DHT22;3896;48.758;8.888;2023-05-10T02:29:44;14.20;99.90
7708;DHT22;3896;48.758;8.888;2023-05-10T02:32:11;14.20;99.90
7708;DHT22;3896;48.758;8.888;2023-05-10T02:34:38;14.20;99.90
7708;DHT22;3896;48.758;8.888;2023-05-10T02:37:04;14.10;99.90
7708;DHT22;3896;48.758;8.888;2023-05-10T02:39:31;14.10;99.90
7708;DHT22;3896;48.758;8.888;2023-05-10T02:41:58;14.10;99.90
7708;DHT22;3896;48.758;8.888;2023-05-10T02:44:25;14.10;99.90
7708;DHT22;3896;48.758;8.888;2023-05-10T02:46:52;14.10;99.90
7708;DHT22;3896;48.758;8.888;2023-05-10T02:49:18;14.00;99.90
7708;DHT22;3896;48.758;8.888;2023-05-10T02:51:53;14.00;99.90
7708;DHT22;3896;48.758;8.888;2023-05-10T02:54:25;13.90;99.90
7708;DHT22;3896;48.758;8.888;2023-05-10T02:56:57;14.00;99.90
7708;DHT22;3896;48.758;8.888;2023-05-10T02:59:23;13.90;99.90
7708;DHT22;3896;48.758;8.888;2023-05-10T03:01:49;13.90;99.90
7708;DHT22;3896;48.758;8.888;2023-05-10T03:04:14;13.90;99.90
7708;DHT22;3896;48.758;8.888;2023-05-10T03:06:40;13.90;99.90
7708;DHT22;3896;48.758;8.888;2023-05-10T03:09:06;13.90;99.90
7708;DHT22;3896;48.758;8.888;2023-05-10T03:11:39;13.90;99.90
7708;DHT22;3896;48.758;8.888;2023-05-10T03:16:51;13.90;99.90
7708;DHT22;3896;48.758;8.888;2023-05-10T03:19:24;13.90;99.90
7708;DHT22;3896;48.758;8.888;2023-05-10T03:21:52;13.90;99.90
7708;DHT22;3896;48.758;8.888;2023-05-10T03:24:21;13.90;99.90
7708;DHT22;3896;48.758;8.888;2023-05-10T03:26:48;13.90;99.90
7708;DHT22;3896;48.758;8.888;2023-05-10T03:29:15;13.90;99.90
7708;DHT22;3896;48.758;8.888;2023-05-10T03:31:42;13.90;99.90
7708;DHT22;3896;48.758;8.888;2023-05-10T03:34:07;13.90;99.90
7708;DHT22;3896;48.758;8.888;2023-05-10T03:36:33;13.90;99.90
7708;DHT22;3896;48.758;8.888;2023-05-10T03:38:59;13.90;99.90
7708;DHT22;3896;48.758;8.888;2023-05-10T03:41:24;13.90;99.90
7708;DHT22;3896;48.758;8.888;2023-05-10T03:43:50;13.90;99.90
7708;DHT22;3896;48.758;8.888;2023-05-10T03:46:16;13.90;99.90
7708;DHT22;3896;48.758;8.888;2023-05-10T03:48:42;13.90;99.90
7708;DHT22;3896;48.758;8.888;2023-05-10T03:51:07;13.90;99.90
7708;DHT22;3896;48.758;8.888;2023-05-10T03:53:33;13.90;99.90
7708;DHT22;3896;48.758;8.888;2023-05-10T03:55:58;13.90;99.90
7708;DHT22;3896;48.758;8.888;2023-05-10T03:58:24;13.90;99.90
7708;DHT22;3896;48.758;8.888;2023-05-10T04:00:51;13.90;99.90
7708;DHT22;3896;48.758;8.888;2023-05-10T04:03:16;13.90;99.90
7708;DHT22;3896;48.758;8.888;2023-05-10T04:05:43;13.90;99.90
7708;DHT22;3896;48.758;8.888;2023-05-10T04:08:08;13.90;99.90
7708;DHT22;3896;48.758;8.888;2023-05-10T04:10:34;13.90;99.90
7708;DHT22;3896;48.758;8.888;2023-05-10T04:12:59;13.90;99.90
7708;DHT22;3896;48.758;8.888;2023-05-10T04:15:25;13.90;99.90
7708;DHT22;3896;48.758;8.888;2023-05-10T04:17:50;13.90;99.90
7708;DHT22;3896;48.758;8.888;2023-05-10T04:20:16;13.90;99.90
7708;DHT22;3896;48.758;8.888;2023-05-10T04:22:42;13.90;99.90
7708;DHT22;3896;48.758;8.888;2023-05-10T04:25:08;13.90;99.90
7708;DHT22;3896;48.758;8.888;2023-05-10T04:27:33;13.90;99.90
7708;DHT22;3896;48.758;8.888;2023-05-10T04:29:59;13.90;99.90
7708;DHT22;3896;48.758;8.888;2023-05-10T04:32:24;13.90;99.90
7708;DHT22;3896;48.758;8.888;2023-05-10T04:34:50;13.90;99.90
7708;DHT22;3896;48.758;8.888;2023-05-10T04:37:17;13.90;99.90
7708;DHT22;3896;48.758;8.888;2023-05-10T04:39:43;13.90;99.90
7708;DHT22;3896;48.758;8.888;2023-05-10T04:42:08;13.90;99.90
7708;DHT22;3896;48.758;8.888;2023-05-10T04:44:34;13.90;99.90
7708;DHT22;3896;48.758;8.888;2023-05-10T04:47:00;13.90;99.90
7708;DHT22;3896;48.758;8.888;2023-05-10T04:49:27;13.90;99.90
7708;DHT22;3896;48.758;8.888;2023-05-10T04:51:53;13.90;99.90
7708;DHT22;3896;48.758;8.888;2023-05-10T04:54:18;13.90;99.90
7708;DHT22;3896;48.758;8.888;2023-05-10T04:56:44;13.90;99.90
7708;DHT22;3896;48.758;8.888;2023-05-10T04:59:09;13.90;99.90
7708;DHT22;3896;48.758;8.888;2023-05-10T05:01:35;13.80;99.90
7708;DHT22;3896;48.758;8.888;2023-05-10T05:04:01;13.90;99.90
7708;DHT22;3896;48.758;8.888;2023-05-10T05:06:26;13.90;99.90
7708;DHT22;3896;48.758;8.888;2023-05-10T05:08:52;13.90;99.90
7708;DHT22;3896;48.758;8.888;2023-05-10T05:11:18;13.90;99.90
7708;DHT22;3896;48.758;8.888;2023-05-10T05:13:44;13.90;99.90
7708;DHT22;3896;48.758;8.888;2023-05-10T05:16:09;13.90;99.90
7708;DHT22;3896;48.758;8.888;2023-05-10T05:18:36;13.90;99.90
7708;DHT22;3896;48.758;8.888;2023-05-10T05:21:01;13.90;99.90
7708;DHT22;3896;48.758;8.888;2023-05-10T05:23:27;13.90;99.90
7708;DHT22;3896;48.758;8.888;2023-05-10T05:25:53;13.90;99.90
7708;DHT22;3896;48.758;8.888;2023-05-10T05:28:20;13.90;99.90
7708;DHT22;3896;48.758;8.888;2023-05-10T05:30:46;13.90;99.90
7708;DHT22;3896;48.758;8.888;2023-05-10T05:33:13;14.00;99.90
7708;DHT22;3896;48.758;8.888;2023-05-10T05:35:39;14.00;99.90
7708;DHT22;3896;48.758;8.888;2023-05-10T05:38:04;14.00;99.90
7708;DHT22;3896;48.758;8.888;2023-05-10T05:40:30;14.00;99.90
7708;DHT22;3896;48.758;8.888;2023-05-10T05:42:56;14.00;99.90
7708;DHT22;3896;48.758;8.888;2023-05-10T05:45:21;14.00;99.90
7708;DHT22;3896;48.758;8.888;2023-05-10T05:47:47;14.10;99.90
7708;DHT22;3896;48.758;8.888;2023-05-10T05:50:12;14.10;99.90
7708;DHT22;3896;48.758;8.888;2023-05-10T05:52:38;14.10;99.90
7708;DHT22;3896;48.758;8.888;2023-05-10T05:55:04;14.10;99.90
7708;DHT22;3896;48.758;8.888;2023-05-10T05:57:30;14.20;99.90
7708;DHT22;3896;48.758;8.888;2023-05-10T05:59:55;14.10;99.90
7708;DHT22;3896;48.758;8.888;2023-05-10T06:02:21;14.10;99.90
7708;DHT22;3896;48.758;8.888;2023-05-10T06:04:46;14.20;99.90
7708;DHT22;3896;48.758;8.888;2023-05-10T06:07:12;14.20;99.90
7708;DHT22;3896;48.758;8.888;2023-05-10T06:09:37;14.20;99.90
7708;DHT22;3896;48.758;8.888;2023-05-10T06:12:03;14.20;99.90
7708;DHT22;3896;48.758;8.888;2023-05-10T06:14:29;14.20;99.90
7708;DHT22;3896;48.758;8.888;2023-05-10T06:16:54;14.20;99.90
7708;DHT22;3896;48.758;8.888;2023-05-10T06:19:20;14.30;99.90
7708;DHT22;3896;48.758;8.888;2023-05-10T06:21:45;14.20;99.90
7708;DHT22;3896;48.758;8.888;2023-05-10T06:24:11;14.30;99.90
7708;DHT22;3896;48.758;8.888;2023-05-10T06:26:37;14.30;99.90
7708;DHT22;3896;48.758;8.888;2023-05-10T06:29:02;14.30;99.90
7708;DHT22;3896;48.758;8.888;2023-05-10T06:31:28;14.30;99.90
7708;DHT22;3896;48.758;8.888;2023-05-10T06:33:53;14.40;99.90
7708;DHT22;3896;48.758;8.888;2023-05-10T06:36:19;14.40;99.90
7708;DHT22;3896;48.758;8.888;2023-05-10T06:38:44;14.40;99.90
7708;DHT22;3896;48.758;8.888;2023-05-10T06:41:10;14.40;99.90
7708;DHT22;3896;48.758;8.888;2023-05-10T06:43:35;14.50;99.90
7708;DHT22;3896;48.758;8.888;2023-05-10T06:46:02;14.50;99.90
7708;DHT22;3896;48.758;8.888;2023-05-10T06:48:27;14.60;99.90
7708;DHT22;3896;48.758;8.888;2023-05-10T06:50:53;14.60;99.90
7708;DHT22;3896;48.758;8.888;2023-05-10T06:53:19;14.70;99.90
7708;DHT22;3896;48.758;8.888;2023-05-10T06:55:44;14.70;99.90
7708;DHT22;3896;48.758;8.888;2023-05-10T06:58:10;14.70;99.90
7708;DHT22;3896;48.758;8.888;2023-05-10T07:00:35;14.80;99.90
7708;DHT22;3896;48.758;8.888;2023-05-10T07:03:05;14.80;99.90
7708;DHT22;3896;48.758;8.888;2023-05-10T07:05:32;14.90;99.90
7708;DHT22;3896;48.758;8.888;2023-05-10T07:07:58;14.90;99.90
7708;DHT22;3896;48.758;8.888;2023-05-10T07:10:23;14.90;99.90
7708;DHT22;3896;48.758;8.888;2023-05-10T07:12:49;15.00;99.90
7708;DHT22;3896;48.758;8.888;2023-05-10T07:15:15;15.00;99.90
7708;DHT22;3896;48.758;8.888;2023-05-10T07:17:41;15.10;99.90
7708;DHT22;3896;48.758;8.888;2023-05-10T07:20:07;15.10;99.90
7708;DHT22;3896;48.758;8.888;2023-05-10T07:22:33;15.10;99.90
7708;DHT22;3896;48.758;8.888;2023-05-10T07:24:58;15.20;99.90
7708;DHT22;3896;48.758;8.888;2023-05-10T07:27:24;15.30;99.90
7708;DHT22;3896;48.758;8.888;2023-05-10T07:29:49;15.30;99.90
7708;DHT22;3896;48.758;8.888;2023-05-10T07:32:15;15.40;99.90
7708;DHT22;3896;48.758;8.888;2023-05-10T07:34:41;15.40;99.90
7708;DHT22;3896;48.758;8.888;2023-05-10T07:37:06;15.40;99.90
7708;DHT22;3896;48.758;8.888;2023-05-10T07:39:32;15.50;99.90
7708;DHT22;3896;48.758;8.888;2023-05-10T07:41:58;15.50;99.90
7708;DHT22;3896;48.758;8.888;2023-05-10T07:44:23;15.60;99.90
7708;DHT22;3896;48.758;8.888;2023-05-10T07:46:49;15.60;99.90
7708;DHT22;3896;48.758;8.888;2023-05-10T07:49:15;15.60;99.90
7708;DHT22;3896;48.758;8.888;2023-05-10T07:51:41;15.70;99.90
7708;DHT22;3896;48.758;8.888;2023-05-10T07:54:07;15.70;99.90
7708;DHT22;3896;48.758;8.888;2023-05-10T07:56:33;15.80;99.90
7708;DHT22;3896;48.758;8.888;2023-05-10T07:58:59;15.80;99.90
7708;DHT22;3896;48.758;8.888;2023-05-10T08:01:25;15.90;99.90
7708;DHT22;3896;48.758;8.888;2023-05-10T08:03:51;15.90;99.90
7708;DHT22;3896;48.758;8.888;2023-05-10T08:06:18;15.90;99.90
7708;DHT22;3896;48.758;8.888;2023-05-10T08:08:45;16.00;99.90
7708;DHT22;3896;48.758;8.888;2023-05-10T08:11:15;16.10;99.90
7708;DHT22;3896;48.758;8.888;2023-05-10T08:13:40;16.10;99.90
7708;DHT22;3896;48.758;8.888;2023-05-10T08:16:06;16.10;99.90
7708;DHT22;3896;48.758;8.888;2023-05-10T08:18:32;16.20;99.90
7708;DHT22;3896;48.758;8.888;2023-05-10T08:20:58;16.30;99.90
7708;DHT22;3896;48.758;8.888;2023-05-10T08:23:23;16.30;99.90
7708;DHT22;3896;48.758;8.888;2023-05-10T08:25:49;16.40;99.90
7708;DHT22;3896;48.758;8.888;2023-05-10T08:28:14;16.40;99.90
7708;DHT22;3896;48.758;8.888;2023-05-10T08:30:40;16.50;99.90
7708;DHT22;3896;48.758;8.888;2023-05-10T08:33:06;16.50;99.90
7708;DHT22;3896;48.758;8.888;2023-05-10T08:35:31;16.50;99.90
7708;DHT22;3896;48.758;8.888;2023-05-10T08:37:58;16.60;99.90
7708;DHT22;3896;48.758;8.888;2023-05-10T08:40:24;16.70;99.90
7708;DHT22;3896;48.758;8.888;2023-05-10T08:43:05;16.70;99.90
7708;DHT22;3896;48.758;8.888;2023-05-10T08:45:33;16.70;99.90
7708;DHT22;3896;48.758;8.888;2023-05-10T08:48:02;16.80;99.90
7708;DHT22;3896;48.758;8.888;2023-05-10T08:50:30;16.90;99.90
7708;DHT22;3896;48.758;8.888;2023-05-10T08:52:59;16.90;99.90
7708;DHT22;3896;48.758;8.888;2023-05-10T08:55:25;17.00;99.90
7708;DHT22;3896;48.758;8.888;2023-05-10T08:57:51;17.00;99.90
7708;DHT22;3896;48.758;8.888;2023-05-10T09:00:17;17.00;99.90
7708;DHT22;3896;48.758;8.888;2023-05-10T09:02:43;17.10;99.90
7708;DHT22;3896;48.758;8.888;2023-05-10T09:05:11;17.10;99.90
7708;DHT22;3896;48.758;8.888;2023-05-10T09:07:37;17.20;99.90
7708;DHT22;3896;48.758;8.888;2023-05-10T09:10:05;17.30;99.90
7708;DHT22;3896;48.758;8.888;2023-05-10T09:12:31;17.30;99.90
7708;DHT22;3896;48.758;8.888;2023-05-10T09:14:59;17.40;99.90
7708;DHT22;3896;48.758;8.888;2023-05-10T09:17:25;17.50;99.90
7708;DHT22;3896;48.758;8.888;2023-05-10T09:19:59;17.50;99.90
7708;DHT22;3896;48.758;8.888;2023-05-10T09:22:25;17.60;99.90
7708;DHT22;3896;48.758;8.888;2023-05-10T09:25:08;17.70;99.20
7708;DHT22;3896;48.758;8.888;2023-05-10T09:27:35;17.80;98.50
7708;DHT22;3896;48.758;8.888;2023-05-10T09:30:01;17.80;97.50
7708;DHT22;3896;48.758;8.888;2023-05-10T09:32:57;17.90;96.60
7708;DHT22;3896;48.758;8.888;2023-05-10T09:35:27;18.00;96.60
7708;DHT22;3896;48.758;8.888;2023-05-10T09:37:54;18.00;95.90
7708;DHT22;3896;48.758;8.888;2023-05-10T09:40:22;18.10;95.20
7708;DHT22;3896;48.758;8.888;2023-05-10T09:42:58;18.20;94.90
7708;DHT22;3896;48.758;8.888;2023-05-10T09:45:26;18.30;93.90
7708;DHT22;3896;48.758;8.888;2023-05-10T09:47:52;18.30;93.20
7708;DHT22;3896;48.758;8.888;2023-05-10T09:50:19;18.40;92.60
7708;DHT22;3896;48.758;8.888;2023-05-10T09:55:15;18.40;92.20
7708;DHT22;3896;48.758;8.888;2023-05-10T09:57:41;18.50;91.40
7708;DHT22;3896;48.758;8.888;2023-05-10T10:00:07;18.50;91.00
7708;DHT22;3896;48.758;8.888;2023-05-10T10:02:35;18.60;90.60
7708;DHT22;3896;48.758;8.888;2023-05-10T10:05:02;18.60;90.10
7708;DHT22;3896;48.758;8.888;2023-05-10T10:07:29;18.70;89.10
7708;DHT22;3896;48.758;8.888;2023-05-10T10:09:55;18.70;88.60
7708;DHT22;3896;48.758;8.888;2023-05-10T10:12:20;18.70;88.50
7708;DHT22;3896;48.758;8.888;2023-05-10T10:14:47;18.80;88.30
7708;DHT22;3896;48.758;8.888;2023-05-10T10:17:13;18.90;88.10
7708;DHT22;3896;48.758;8.888;2023-05-10T10:19:40;19.00;88.30
7708;DHT22;3896;48.758;8.888;2023-05-10T10:22:06;19.00;86.80
7708;DHT22;3896;48.758;8.888;2023-05-10T10:24:32;19.10;84.40
7708;DHT22;3896;48.758;8.888;2023-05-10T10:30:00;19.00;83.10
7708;DHT22;3896;48.758;8.888;2023-05-10T10:32:42;19.00;82.80
7708;DHT22;3896;48.758;8.888;2023-05-10T10:35:12;18.90;82.30
7708;DHT22;3896;48.758;8.888;2023-05-10T10:37:43;18.90;81.40
7708;DHT22;3896;48.758;8.888;2023-05-10T10:40:30;18.80;80.90
7708;DHT22;3896;48.758;8.888;2023-05-10T10:42:56;18.70;80.80
7708;DHT22;3896;48.758;8.888;2023-05-10T10:45:23;18.70;80.60
7708;DHT22;3896;48.758;8.888;2023-05-10T10:47:53;18.70;81.10
7708;DHT22;3896;48.758;8.888;2023-05-10T10:50:19;18.60;81.90
7708;DHT22;3896;48.758;8.888;2023-05-10T10:52:45;18.60;82.40
7708;DHT22;3896;48.758;8.888;2023-05-10T10:55:19;18.60;83.90
7708;DHT22;3896;48.758;8.888;2023-05-10T10:57:51;18.50;84.90
7708;DHT22;3896;48.758;8.888;2023-05-10T11:00:22;18.50;85.60
7708;DHT22;3896;48.758;8.888;2023-05-10T11:02:50;18.40;84.80
7708;DHT22;3896;48.758;8.888;2023-05-10T11:07:55;18.40;84.80
7708;DHT22;3896;48.758;8.888;2023-05-10T11:10:22;18.30;84.40
7708;DHT22;3896;48.758;8.888;2023-05-10T11:13:02;18.30;85.30
7708;DHT22;3896;48.758;8.888;2023-05-10T11:15:33;18.20;85.20
7708;DHT22;3896;48.758;8.888;2023-05-10T11:17:59;18.20;85.60
7708;DHT22;3896;48.758;8.888;2023-05-10T11:20:28;18.20;85.80
7708;DHT22;3896;48.758;8.888;2023-05-10T11:23:11;18.20;85.90
7708;DHT22;3896;48.758;8.888;2023-05-10T11:25:42;18.20;85.20
7708;DHT22;3896;48.758;8.888;2023-05-10T11:28:11;18.20;84.00
7708;DHT22;3896;48.758;8.888;2023-05-10T11:30:41;18.20;84.00
7708;DHT22;3896;48.758;8.888;2023-05-10T11:33:07;18.20;83.20
7708;DHT22;3896;48.758;8.888;2023-05-10T11:35:40;18.20;83.10
7708;DHT22;3896;48.758;8.888;2023-05-10T11:38:09;18.20;83.10
7708;DHT22;3896;48.758;8.888;2023-05-10T11:40:36;18.20;82.90
7708;DHT22;3896;48.758;8.888;2023-05-10T11:43:02;18.20;82.90
7708;DHT22;3896;48.758;8.888;2023-05-10T11:45:29;18.20;83.20
7708;DHT22;3896;48.758;8.888;2023-05-10T11:47:56;18.30;84.00
7708;DHT22;3896;48.758;8.888;2023-05-10T11:50:22;18.30;84.30
7708;DHT22;3896;48.758;8.888;2023-05-10T11:52:52;18.30;84.40
7708;DHT22;3896;48.758;8.888;2023-05-10T11:55:18;18.30;84.50
7708;DHT22;3896;48.758;8.888;2023-05-10T11:57:43;18.30;85.00
7708;DHT22;3896;48.758;8.888;2023-05-10T12:00:12;18.30;84.90
7708;DHT22;3896;48.758;8.888;2023-05-10T12:02:37;18.30;85.10
7708;DHT22;3896;48.758;8.888;2023-05-10T12:05:04;18.30;84.70
7708;DHT22;3896;48.758;8.888;2023-05-10T12:07:30;18.40;84.30
7708;DHT22;3896;48.758;8.888;2023-05-10T12:10:26;18.40;84.60
7708;DHT22;3896;48.758;8.888;2023-05-10T12:12:52;18.40;83.30
7708;DHT22;3896;48.758;8.888;2023-05-10T12:15:23;18.50;82.10
7708;DHT22;3896;48.758;8.888;2023-05-10T12:17:49;18.50;80.60
7708;DHT22;3896;48.758;8.888;2023-05-10T12:20:27;18.50;79.10
7708;DHT22;3896;48.758;8.888;2023-05-10T12:22:55;18.50;78.90
7708;DHT22;3896;48.758;8.888;2023-05-10T12:25:23;18.50;78.60
7708;DHT22;3896;48.758;8.888;2023-05-10T12:27:59;18.50;78.20
7708;DHT22;3896;48.758;8.888;2023-05-10T12:30:29;18.50;77.80
7708;DHT22;3896;48.758;8.888;2023-05-10T12:33:13;18.50;77.10
7708;DHT22;3896;48.758;8.888;2023-05-10T12:35:48;18.60;77.60
7708;DHT22;3896;48.758;8.888;2023-05-10T12:38:41;18.60;78.00
7708;DHT22;3896;48.758;8.888;2023-05-10T12:41:12;18.60;77.80
7708;DHT22;3896;48.758;8.888;2023-05-10T12:43:39;18.70;77.70
7708;DHT22;3896;48.758;8.888;2023-05-10T12:46:16;18.80;77.20
7708;DHT22;3896;48.758;8.888;2023-05-10T12:48:42;18.80;76.80
7708;DHT22;3896;48.758;8.888;2023-05-10T12:51:08;18.90;76.20
7708;DHT22;3896;48.758;8.888;2023-05-10T12:53:35;19.00;75.40
7708;DHT22;3896;48.758;8.888;2023-05-10T12:56:01;19.10;75.10
7708;DHT22;3896;48.758;8.888;2023-05-10T12:58:26;19.20;74.80
7708;DHT22;3896;48.758;8.888;2023-05-10T13:00:53;19.30;74.70
7708;DHT22;3896;48.758;8.888;2023-05-10T13:03:19;19.30;74.20
7708;DHT22;3896;48.758;8.888;2023-05-10T13:05:44;19.40;73.70
7708;DHT22;3896;48.758;8.888;2023-05-10T13:08:10;19.50;72.60
7708;DHT22;3896;48.758;8.888;2023-05-10T13:10:36;19.50;71.70
7708;DHT22;3896;48.758;8.888;2023-05-10T13:13:01;19.60;71.90
7708;DHT22;3896;48.758;8.888;2023-05-10T13:15:27;19.70;70.80
7708;DHT22;3896;48.758;8.888;2023-05-10T13:17:54;19.70;69.90
7708;DHT22;3896;48.758;8.888;2023-05-10T13:20:19;19.70;68.90
7708;DHT22;3896;48.758;8.888;2023-05-10T13:22:46;19.70;68.30
7708;DHT22;3896;48.758;8.888;2023-05-10T13:25:12;19.70;67.50
7708;DHT22;3896;48.758;8.888;2023-05-10T13:27:39;19.70;67.00
7708;DHT22;3896;48.758;8.888;2023-05-10T13:30:05;19.70;65.60
7708;DHT22;3896;48.758;8.888;2023-05-10T13:32:30;19.70;65.50
7708;DHT22;3896;48.758;8.888;2023-05-10T13:34:56;19.70;65.30
7708;DHT22;3896;48.758;8.888;2023-05-10T13:37:22;19.70;65.20
7708;DHT22;3896;48.758;8.888;2023-05-10T13:39:48;19.70;65.00
7708;DHT22;3896;48.758;8.888;2023-05-10T13:42:13;19.70;65.00
7708;DHT22;3896;48.758;8.888;2023-05-10T13:44:39;19.70;64.40
7708;DHT22;3896;48.758;8.888;2023-05-10T13:47:05;19.70;64.50
7708;DHT22;3896;48.758;8.888;2023-05-10T13:49:31;19.70;64.60
7708;DHT22;3896;48.758;8.888;2023-05-10T13:51:57;19.70;64.30
7708;DHT22;3896;48.758;8.888;2023-05-10T13:54:23;19.70;64.40
7708;DHT22;3896;48.758;8.888;2023-05-10T13:56:49;19.70;64.50
7708;DHT22;3896;48.758;8.888;2023-05-10T13:59:15;19.70;64.50
7708;DHT22;3896;48.758;8.888;2023-05-10T14:01:41;19.80;64.90
7708;DHT22;3896;48.758;8.888;2023-05-10T14:04:08;19.80;64.30
7708;DHT22;3896;48.758;8.888;2023-05-10T14:06:35;19.90;64.30
7708;DHT22;3896;48.758;8.888;2023-05-10T14:09:02;19.90;63.90
7708;DHT22;3896;48.758;8.888;2023-05-10T14:11:27;20.00;63.90
7708;DHT22;3896;48.758;8.888;2023-05-10T14:13:53;20.10;63.50
7708;DHT22;3896;48.758;8.888;2023-05-10T14:16:19;20.10;64.00
7708;DHT22;3896;48.758;8.888;2023-05-10T14:18:45;20.10;63.60
7708;DHT22;3896;48.758;8.888;2023-05-10T14:21:11;20.10;63.40
7708;DHT22;3896;48.758;8.888;2023-05-10T14:23:37;20.20;63.10
7708;DHT22;3896;48.758;8.888;2023-05-10T14:26:02;20.10;63.30
7708;DHT22;3896;48.758;8.888;2023-05-10T14:28:28;20.10;63.40
7708;DHT22;3896;48.758;8.888;2023-05-10T14:30:54;20.10;62.60
7708;DHT22;3896;48.758;8.888;2023-05-10T14:33:19;20.10;62.30
7708;DHT22;3896;48.758;8.888;2023-05-10T14:35:46;20.00;62.50
7708;DHT22;3896;48.758;8.888;2023-05-10T14:38:12;20.00;62.60
7708;DHT22;3896;48.758;8.888;2023-05-10T14:40:38;20.00;62.40
7708;DHT22;3896;48.758;8.888;2023-05-10T14:43:03;20.00;63.50
7708;DHT22;3896;48.758;8.888;2023-05-10T14:45:29;20.00;63.20
7708;DHT22;3896;48.758;8.888;2023-05-10T14:47:54;20.00;64.20
7708;DHT22;3896;48.758;8.888;2023-05-10T14:50:20;20.00;63.40
7708;DHT22;3896;48.758;8.888;2023-05-10T14:52:46;20.00;62.80
7708;DHT22;3896;48.758;8.888;2023-05-10T14:55:11;20.00;62.30
7708;DHT22;3896;48.758;8.888;2023-05-10T14:57:37;20.00;61.90
7708;DHT22;3896;48.758;8.888;2023-05-10T15:00:03;20.00;61.60
7708;DHT22;3896;48.758;8.888;2023-05-10T15:02:30;20.00;61.10
7708;DHT22;3896;48.758;8.888;2023-05-10T15:04:56;20.00;61.10
7708;DHT22;3896;48.758;8.888;2023-05-10T15:07:23;20.00;60.80
7708;DHT22;3896;48.758;8.888;2023-05-10T15:09:49;20.00;60.30
7708;DHT22;3896;48.758;8.888;2023-05-10T15:12:15;20.10;59.80
7708;DHT22;3896;48.758;8.888;2023-05-10T15:14:41;20.10;59.40
7708;DHT22;3896;48.758;8.888;2023-05-10T15:17:06;20.10;59.60
7708;DHT22;3896;48.758;8.888;2023-05-10T15:19:32;20.10;59.70
7708;DHT22;3896;48.758;8.888;2023-05-10T15:21:58;20.10;59.60
7708;DHT22;3896;48.758;8.888;2023-05-10T15:24:24;20.10;59.70
7708;DHT22;3896;48.758;8.888;2023-05-10T15:26:50;20.10;60.60
7708;DHT22;3896;48.758;8.888;2023-05-10T15:29:15;20.10;60.80
7708;DHT22;3896;48.758;8.888;2023-05-10T15:31:46;20.20;60.10
7708;DHT22;3896;48.758;8.888;2023-05-10T15:34:12;20.20;59.90
7708;DHT22;3896;48.758;8.888;2023-05-10T15:36:38;20.20;60.10
7708;DHT22;3896;48.758;8.888;2023-05-10T15:39:03;20.20;59.60
7708;DHT22;3896;48.758;8.888;2023-05-10T15:41:29;20.20;59.60
7708;DHT22;3896;48.758;8.888;2023-05-10T15:43:55;20.20;59.30
7708;DHT22;3896;48.758;8.888;2023-05-10T15:46:21;20.10;59.30
7708;DHT22;3896;48.758;8.888;2023-05-10T15:48:46;20.10;58.90
7708;DHT22;3896;48.758;8.888;2023-05-10T15:51:12;20.10;59.20
7708;DHT22;3896;48.758;8.888;2023-05-10T15:53:38;20.10;58.90
7708;DHT22;3896;48.758;8.888;2023-05-10T15:56:04;20.20;58.90
7708;DHT22;3896;48.758;8.888;2023-05-10T15:58:30;20.20;58.90
7708;DHT22;3896;48.758;8.888;2023-05-10T16:00:56;20.20;58.90
7708;DHT22;3896;48.758;8.888;2023-05-10T16:03:22;20.10;58.50
7708;DHT22;3896;48.758;8.888;2023-05-10T16:05:47;20.10;58.70
7708;DHT22;3896;48.758;8.888;2023-05-10T16:08:13;20.10;58.90
7708;DHT22;3896;48.758;8.888;2023-05-10T16:10:39;20.10;58.80
7708;DHT22;3896;48.758;8.888;2023-05-10T16:13:04;20.10;58.60
7708;DHT22;3896;48.758;8.888;2023-05-10T16:15:30;20.00;58.40
7708;DHT22;3896;48.758;8.888;2023-05-10T16:17:56;19.90;58.60
7708;DHT22;3896;48.758;8.888;2023-05-10T16:20:22;19.90;59.00
7708;DHT22;3896;48.758;8.888;2023-05-10T16:22:51;19.80;59.40